ETEB 141356Z AUTO 13004KT 1200 HZ CLR 23/13 A2996 RMK AO2 SLP145 T02330129 RVRNO $ EDMA 141350Z 07004KT 030V100 CAVOK 22/13 Q1015 ETIK 141356Z AUTO 09005KT 9999 CLR 24/14 A2994 RMK AO2 SLP132 T02430138 $ EDDT 141350Z VRB02KT 9999 FEW032 22/14 Q1014 NOSIG LSZB 141350Z 28005KT CAVOK 22/13 Q1014 NOSIG LIPB 141350Z 16004KT 110V240 CAVOK 21/11 Q1019 EDVE 141350Z 09009KT 060V120 CAVOK 21/14 Q1013 EDDW 141350Z 09009KT 060V130 CAVOK 18/12 Q1012 NOSIG LFMD 141400Z AUTO 07007KT 360V150 CAVOK 24/17 Q1017 NOSIG EDLW 141350Z 04004KT 010V080 CAVOK 21/16 Q1010 EDDC 141350Z 14011KT CAVOK 22/13 Q1014 NOSIG EDDL 141350Z 14011KT 110V180 CAVOK 23/15 Q1009 NOSIG EDDE 141350Z 20006KT 170V250 CAVOK 25/11 Q1013 NOSIG LIRQ 141350Z 29006KT 9999 FEW040 BKN080 23/16 Q1019 EDDF 141350Z 15007KT 120V200 CAVOK 24/13 Q1011 NOSIG EDNY 141350Z 22005KT 190V250 CAVOK 21/13 Q1014 ETHF 141320Z 18009KT 9999 SCT300 23/14 Q1012 BLU+BLU+ LIMJ 141350Z 10008KT 9999 SCT020 OVC035 20/16 Q1019 ETIC 141356Z AUTO 00000KT 0400 R32/0450V1000 HZ CLR 24/13 A2995 RMK AO2 SLP137 T02370129 $ LOWG 141350Z 15006KT 120V180 CAVOK 21/13 Q1018 NOSIG EDDH 141350Z 09007KT 050V120 9999 FEW027 18/11 Q1013 NOSIG EDDV 141350Z 09010KT CAVOK 20/14 Q1012 NOSIG EDQM 141350Z 16003KT CAVOK 23/14 Q1015 ETIH 141356Z AUTO 06003KT 9999 CLR 23/18 A2998 RMK AO2 SLP148 T02330179 $ ETSI 141320Z 04002KT 9999 FEW150 22/14 Q1014 BLU+BLU+ LOWI 141350Z VRB03KT CAVOK 23/13 Q1014 NOSIG EDVK 141350Z 14008KT CAVOK 23/14 Q1012 EDHK 141350Z 07007KT 9999 FEW023 14/11 Q1014 LOWK 141350Z VRB02KT CAVOK 22/10 Q1017 NOSIG EDDK 141350Z 16013KT 130V190 CAVOK 23/14 Q1009 NOSIG EDDP 141350Z 12009KT 090V150 CAVOK 24/14 Q1013 NOSIG LOWL 141350Z 09009KT 9999 FEW011 15/12 Q1015 NOSIG LSZA 141350Z VRB02KT 9999 BKN080 18/11 Q1021 NOSIG EDHL 141350Z 09004KT 050V110 CAVOK 17/11 Q1014 LFML 141400Z AUTO 13017KT 9999 FEW010 27/16 Q1014 BECMG 12015G30KT LFMT 141400Z AUTO 13014KT 9999 SCT028 SCT038 BKN046 20/18 Q1015 TEMPO DZ BKN006 BKN020 EDLN 141350Z 14007KT 110V180 CAVOK 23/15 Q1009 EDDM 141350Z 07004KT 010V100 CAVOK 22/12 Q1015 NOSIG EDDG 141350Z VRB04KT CAVOK 20/15 Q1010 NOSIG ETSN 141320Z 11004KT 9999 FEW140 23/13 Q1015 BLU+BLU+ ETHN 141320Z 15005KT 9999 FEW300 24/11 Q1014 BLU+BLU+ LFMN 141400Z 08016KT 9999 FEW050 23/18 Q1017 NOSIG EDDN 141350Z 14003KT 100V190 CAVOK 25/13 Q1014 NOSIG EDMO 141350Z 06008KT CAVOK 22/11 Q1015 EDLP 141350Z 13010KT CAVOK 23/13 Q1011 LIPR 141350Z 08008KT 5000 BR NSC 20/16 Q1020 EDDR 141350Z 13008KT CAVOK 23/12 Q1011 NOSIG LOWS 141350Z VRB02KT 9999 FEW120 BKN150 19/12 Q1014 NOSIG LSGS 141350Z VRB02KT CAVOK 25/08 Q1014 EDDS 141350Z 11003KT 060V180 CAVOK 25/12 Q1013 NOSIG LFTH 141400Z AUTO 10018KT CAVOK 23/18 Q1016 BECMG 09015G25KT LIVT 141255Z /////KT 6000 SCT040 19/16 Q1021 RMK OVC BKN083 QUK 0 QUL 0 VIS MAR 6 KM VIS MIN 6000 LIMF 141350Z VRB01KT 9999 BKN070 19/12 Q1020 LIPI 141255Z VRB02KT 4000 BR FEW010 SCT025 20/14 Q1021 RMK BKN VIS MIN 3000N WIND THR06 VRB02KT WIND THR24 VRB02KT YLO LIPZ 141350Z 12004KT 4000 BR BKN030 19/16 Q1020 NOSIG LIPX 141350Z VRB03KT 4000 BR NSC 21/14 Q1020 EDXW 141320Z 09007KT 9999 FEW021 13/11 Q1014 LOWW 141350Z 15009KT CAVOK 19/13 Q1018 NOSIG LSZH 141350Z 07003KT 350V120 CAVOK 22/13 Q1014 NOSIG

METAR Messwerte

Klicken Sie auf einen Ort, um die 36h-Historie abzurufen

Ort
m ü. NN
Zeit Temperatur Taupunkt Rel.
Luftfeuchte
Luftdruck:
Altimeter
NN
Station
Wind in Beaufort
(Knoten)
Sichtweite
(Meter)
Wolken
(Meter über Grund)
Wettererscheinung
Ansbach
467
Mo 14.10. 15:56231353 %1015
1013
960
SO 2 (4)1200 Dunst
Augsburg
463
Mo 14.10. 15:50221357 %1015
1014
961
ONO 2 (4)
NNO - O
>= 10000Nicht signifikant 
Bad Windsheim / Illesheim
325
Mo 14.10. 15:56241454 %1014
1013
976
O 2 (5)>= 10000  
Berlin-Tegel
37
Mo 14.10. 15:50221460 %1014
1014
1010
Uml 1 (2)>= 10000Leicht bewölkt (980) 
Bern/Belp
505
Mo 14.10. 15:50221357 %1014
1013
955
W 2 (5)>= 10000Nicht signifikant 
Bozen
241
Mo 14.10. 15:50211153 %1019
1018
990
SSO 2 (4)
OSO - WSW
>= 10000Nicht signifikant 
Braunschweig
88
Mo 14.10. 15:50211464 %1013
1013
1002
O 3 (9)
ONO - OSO
>= 10000Nicht signifikant 
Bremen
5
Mo 14.10. 15:50181268 %1012
1012
1011
O 3 (9)
ONO - SO
>= 10000Nicht signifikant 
Cannes
9
Mo 14.10. 16:00241765 %1017
1017
1016
ONO 3 (7)
N - SSO
>= 10000Nicht signifikant 
Dortmund/Wickede
127
Mo 14.10. 15:50211673 %1010
1010
995
NO 2 (4)
N - O
>= 10000Nicht signifikant 
Dresden-Klotzsche
226
Mo 14.10. 15:50221357 %1014
1013
987
SO 4 (11)>= 10000Nicht signifikant 
Düsseldorf
44
Mo 14.10. 15:50231561 %1009
1009
1004
SO 4 (11)
OSO - S
>= 10000Nicht signifikant 
Erfurt-Bindersleben
323
Mo 14.10. 15:50251141 %1013
1012
975
SSW 2 (6)
S - WSW
>= 10000Nicht signifikant 
Florenz
38
Mo 14.10. 15:50231665 %1019
1019
1014
WNW 2 (6)>= 10000Stark bewölkt (2400)
Leicht bewölkt (1200)
 
Frankfurt
113
Mo 14.10. 15:50241350 %1011
1011
998
SSO 3 (7)
OSO - SSW
>= 10000Nicht signifikant 
Friedrichshafen
424
Mo 14.10. 15:50211360 %1014
1013
964
SW 2 (5)
S - WSW
>= 10000Nicht signifikant 
Fritzlar
181
Mo 14.10. 15:20231457 %1012
1011
990
S 3 (9)>= 10000Wolkig (9100) 
Genua
3
Mo 14.10. 15:50201678 %1019
1019
1019
O 3 (8)>= 10000Bedeckt (1100)
Wolkig (610)
 
Grafenwöhr
415
Mo 14.10. 15:56241350 %1014
1012
965
Windstill400 Dunst
Graz-Thalerhof
347
Mo 14.10. 15:50211360 %1018
1017
977
SSO 2 (6)
OSO - S
>= 10000Nicht signifikant 
Hamburg-Fuhlsbüttel
16
Mo 14.10. 15:50181164 %1013
1013
1011
O 3 (7)
NO - OSO
>= 10000Leicht bewölkt (820) 
Hannover
54
Mo 14.10. 15:50201468 %1012
1012
1006
O 3 (10)>= 10000Nicht signifikant 
Hof
568
Mo 14.10. 15:50231457 %1015
1013
949
SSO 2 (3)>= 10000Nicht signifikant 
Hohenfels
442
Mo 14.10. 15:56231873 %1015
1014
963
ONO 2 (3)>= 10000  
Ingolstadt
370
Mo 14.10. 15:20221460 %1014
1013
970
NO 1 (2)>= 10000Leicht bewölkt (4600) 
Innsbruck
581
Mo 14.10. 15:50231353 %1014
1012
946
Uml 2 (3)>= 10000Nicht signifikant 
Kassel/Calden
285
Mo 14.10. 15:50231457 %1012
1011
978
SO 3 (8)>= 10000Nicht signifikant 
Kiel
31
Mo 14.10. 15:50141182 %1014
1014
1010
ONO 3 (7)>= 10000Leicht bewölkt (700) 
Klagenfurt
441
Mo 14.10. 15:50221046 %1017
1016
965
Uml 1 (2)>= 10000Nicht signifikant 
Köln/Bonn
99
Mo 14.10. 15:50231457 %1009
1009
997
SSO 4 (13)
SO - S
>= 10000Nicht signifikant 
Leipzig-Schkeuditz
149
Mo 14.10. 15:50241454 %1013
1012
995
OSO 3 (9)
O - SSO
>= 10000Nicht signifikant 
Linz/Hörsching
313
Mo 14.10. 15:50151282 %1015
1015
978
O 3 (9)>= 10000Leicht bewölkt (340) 
Lugano
276
Mo 14.10. 15:50181164 %1021
1021
988
Uml 1 (2)>= 10000Stark bewölkt (2400) 
Lübeck-Blankensee
16
Mo 14.10. 15:50171168 %1014
1014
1012
O 2 (4)
NO - OSO
>= 10000Nicht signifikant 
Marseille/Marignane
36
Mo 14.10. 16:00271651 %1014
1014
1010
SO 5 (17)
Bald Übergang zu:
OSO 4 (15) - 7 (30)
>= 10000Leicht bewölkt (300) 
Montpellier
6
Mo 14.10. 16:00201888 %1015
1015
1014
SO 4 (14)>= 10000Stark bewölkt (1400)
Wolkig (1200)
Wolkig (850)
 Bald möglich: Nieselregen
Mönchengladbach
38
Mo 14.10. 15:50231561 %1009
1009
1004
SO 3 (7)
OSO - S
>= 10000Nicht signifikant 
München
447
Mo 14.10. 15:50221253 %1015
1014
962
ONO 2 (4)
N - O
>= 10000Nicht signifikant 
Münster/Osnabrück
52
Mo 14.10. 15:50201573 %1010
1010
1004
Uml 2 (4)>= 10000Nicht signifikant 
Neuburg/Donau
387
Mo 14.10. 15:20231353 %1015
1014
969
OSO 2 (4)>= 10000Leicht bewölkt (4300) 
Niederstetten
473
Mo 14.10. 15:20241144 %1014
1012
958
SSO 2 (5)>= 10000Leicht bewölkt (9100) 
Nizza
10
Mo 14.10. 16:00231873 %1017
1017
1016
O 5 (16)>= 10000Leicht bewölkt (1500) 
Nürnberg
312
Mo 14.10. 15:50251347 %1014
1013
977
SO 2 (3)
O - S
>= 10000Nicht signifikant 
Oberpfaffenhofen
600
Mo 14.10. 15:50221150 %1015
1013
945
ONO 3 (8)>= 10000Nicht signifikant 
Paderborn/Lippstadt
213
Mo 14.10. 15:50231353 %1011
1010
986
SO 3 (10)>= 10000Nicht signifikant 
Rimini
13
Mo 14.10. 15:50201678 %1020
1020
1018
O 3 (8)5000Nicht signifikantNebeldunst
Saarbrücken/Ensheim
320
Mo 14.10. 15:50231250 %1011
1010
973
SO 3 (8)>= 10000Nicht signifikant 
Salzburg
450
Mo 14.10. 15:50191264 %1014
1013
961
Uml 1 (2)>= 10000Stark bewölkt (4600)
Leicht bewölkt (3700)
 
Sion
481
Mo 14.10. 15:5025834 %1014
1012
958
Uml 1 (2)>= 10000Nicht signifikant 
Stuttgart
419
Mo 14.10. 15:50251244 %1013
1011
964
OSO 2 (3)
ONO - S
>= 10000Nicht signifikant 
Toulon
4
Mo 14.10. 16:00231873 %1016
1016
1016
O 5 (18)
Bald Übergang zu:
O 4 (15) - 6 (25)
>= 10000Nicht signifikant 
Triest
20
Mo 14.10. 14:55191683 %1021
1021
1019
 6000Stark bewölkt (2500)
Wolkig (1200)
 
Turin
287
Mo 14.10. 15:50191264 %1020
1020
986
Uml 1 (1)>= 10000Stark bewölkt (2100) 
Udine/Rivolto
53
Mo 14.10. 14:55201468 %1021
1021
1015
Uml 1 (2)4000Wolkig (760)
Leicht bewölkt (300)
Nebeldunst
Venedig
6
Mo 14.10. 15:50191683 %1020
1020
1019
OSO 2 (4)4000Stark bewölkt (910)Nebeldunst
Verona/Villafranca
68
Mo 14.10. 15:50211464 %1020
1020
1012
Uml 2 (3)4000Nicht signifikantNebeldunst
Westerland/Sylt
20
Mo 14.10. 15:20131188 %1014
1014
1012
O 3 (7)>= 10000Leicht bewölkt (640) 
Wien/Schwechat
190
Mo 14.10. 15:50191368 %1018
1018
995
SSO 3 (9)>= 10000Nicht signifikant 
Zürich-Kloten
432
Mo 14.10. 15:50221357 %1014
1013
963
ONO 2 (3)
N - OSO
>= 10000Nicht signifikant 

Altimeter: Einstellung am Altimeter (Höhenmesser), die Höhe 0 muss auf diesen Luftdruckwert zeigen, damit das Gerät die Stationshöhe richtig anzeigt.

NN: Luftdruck reduziert auf "Normal Null", auf Meereshöhe, dieser von der Temperatur abhängige Wert wird bisweilen unkorrekt einfach als "Luftdruck" bezeichnet. Eigentlich nur eine fiktive Größe, die es erlaubt, Stationen auf unterschiedlichen Höhen miteinander zu vergleichen.

Station: Realer Luftdruck an der Station.